createdAt,value
2022-11-24T00:01:31.608Z,7.00
2022-11-24T00:04:06.564Z,7.00
2022-11-24T00:06:36.386Z,6.70
2022-11-24T00:09:05.855Z,7.10
2022-11-24T00:11:36.739Z,7.00
2022-11-24T00:14:06.809Z,6.70
2022-11-24T00:16:38.427Z,7.20
2022-11-24T00:19:09.855Z,6.70
2022-11-24T00:21:39.111Z,6.70
2022-11-24T00:24:07.594Z,7.50
2022-11-24T00:26:39.957Z,7.10
2022-11-24T00:29:11.357Z,7.00
2022-11-24T00:31:42.909Z,6.80
2022-11-24T00:34:14.536Z,6.50
2022-11-24T00:36:43.727Z,7.00
2022-11-24T00:39:15.663Z,6.80
2022-11-24T00:41:44.272Z,7.00
2022-11-24T00:44:12.445Z,6.80
2022-11-24T00:46:40.924Z,6.50
2022-11-24T00:49:09.510Z,7.00
2022-11-24T00:51:39.009Z,6.70
2022-11-24T00:54:07.298Z,6.50
2022-11-24T00:56:35.671Z,6.50
2022-11-24T00:59:04.871Z,7.00
2022-11-24T01:01:33.222Z,6.70
2022-11-24T01:04:02.350Z,7.30
2022-11-24T01:06:32.808Z,6.10
2022-11-24T01:09:01.497Z,6.90
2022-11-24T01:11:55.710Z,6.80
2022-11-24T01:14:25.882Z,6.30
2022-11-24T01:16:55.482Z,6.20
2022-11-24T01:19:24.469Z,6.70
2022-11-24T01:21:53.463Z,6.30
2022-11-24T01:24:21.741Z,6.20
2022-11-24T01:26:50.113Z,6.80
2022-11-24T01:29:18.397Z,6.70
2022-11-24T01:31:46.358Z,6.70
2022-11-24T01:34:14.430Z,7.10
2022-11-24T01:36:42.630Z,6.60
2022-11-24T01:39:11.197Z,6.30
2022-11-24T01:41:39.981Z,6.90
2022-11-24T01:44:27.481Z,6.40
2022-11-24T01:47:35.514Z,6.40
2022-11-24T01:50:06.116Z,6.50
2022-11-24T01:52:53.164Z,6.50
2022-11-24T01:55:28.545Z,6.20
2022-11-24T01:58:06.822Z,6.30
2022-11-24T02:00:40.093Z,5.90
2022-11-24T02:03:09.615Z,6.00
2022-11-24T02:05:54.177Z,6.10
2022-11-24T02:08:41.906Z,6.40
2022-11-24T02:11:10.099Z,6.00
2022-11-24T02:13:41.322Z,6.10
2022-11-24T02:16:12.526Z,6.40
2022-11-24T02:18:43.663Z,5.60
2022-11-24T02:21:16.153Z,6.50
2022-11-24T02:24:01.777Z,6.30
2022-11-24T02:26:47.563Z,5.80
2022-11-24T02:29:16.245Z,6.20
2022-11-24T02:32:05.004Z,6.00
2022-11-24T02:34:33.756Z,6.30
2022-11-24T02:37:02.336Z,5.90
2022-11-24T02:39:30.752Z,6.30
2022-11-24T02:42:08.817Z,5.20
2022-11-24T02:44:46.252Z,5.90
2022-11-24T02:47:14.379Z,6.20
2022-11-24T02:49:42.546Z,5.70
2022-11-24T02:52:11.496Z,6.00
2022-11-24T02:54:40.283Z,5.80
2022-11-24T02:57:09.493Z,5.60
2022-11-24T02:59:38.473Z,5.90
2022-11-24T03:02:06.748Z,5.90
2022-11-24T03:04:35.181Z,5.70
2022-11-24T03:07:03.816Z,5.50
2022-11-24T03:09:32.192Z,5.80
2022-11-24T03:12:00.576Z,5.40
2022-11-24T03:14:28.561Z,5.80
2022-11-24T03:16:56.819Z,6.00
2022-11-24T03:19:24.996Z,5.80
2022-11-24T03:21:53.099Z,5.60
2022-11-24T03:24:21.242Z,5.60
2022-11-24T03:26:49.411Z,6.00
2022-11-24T03:29:17.793Z,5.70
2022-11-24T03:31:46.176Z,5.80
2022-11-24T03:34:14.229Z,5.90
2022-11-24T03:36:42.421Z,5.60
2022-11-24T03:39:10.491Z,5.00
2022-11-24T03:41:38.665Z,5.90
2022-11-24T03:44:07.096Z,5.90
2022-11-24T03:46:35.491Z,5.70
2022-11-24T03:49:03.703Z,5.70
2022-11-24T03:51:31.881Z,5.40
2022-11-24T03:54:00.048Z,5.80
2022-11-24T03:56:28.274Z,5.30
2022-11-24T03:58:56.813Z,5.00
2022-11-24T04:01:25.173Z,4.90
2022-11-24T04:03:53.465Z,5.40
2022-11-24T04:06:22.149Z,5.90
2022-11-24T04:08:50.239Z,5.30
2022-11-24T04:11:37.566Z,5.20
2022-11-24T04:14:10.472Z,5.30
2022-11-24T04:16:42.097Z,5.20
2022-11-24T04:19:10.272Z,4.70
2022-11-24T04:21:38.346Z,5.00
2022-11-24T04:24:07.092Z,4.90
2022-11-24T04:26:35.512Z,5.50
2022-11-24T04:29:03.912Z,5.30
2022-11-24T04:31:32.189Z,5.30
2022-11-24T04:34:00.253Z,5.10
2022-11-24T04:36:28.398Z,5.20
2022-11-24T04:39:23.502Z,5.00
2022-11-24T04:41:45.028Z,5.40
2022-11-24T04:44:13.207Z,5.60
2022-11-24T04:46:41.543Z,5.00
2022-11-24T04:49:12.925Z,5.20
2022-11-24T04:51:42.266Z,4.70
2022-11-24T04:54:13.534Z,5.40
2022-11-24T04:56:43.976Z,4.90
2022-11-24T04:59:15.458Z,5.10
2022-11-24T05:01:45.902Z,4.70
2022-11-24T05:04:16.279Z,5.50
2022-11-24T05:06:44.321Z,5.20
2022-11-24T05:09:16.185Z,5.10
2022-11-24T05:11:44.928Z,5.40
2022-11-24T05:14:13.067Z,5.60
2022-11-24T05:16:41.227Z,5.30
2022-11-24T05:19:09.551Z,5.10
2022-11-24T05:21:37.622Z,5.30
2022-11-24T05:24:06.620Z,5.40
2022-11-24T05:26:35.638Z,5.50
2022-11-24T05:29:03.985Z,5.30
2022-11-24T05:31:32.049Z,5.60
2022-11-24T05:34:00.349Z,3.30
2022-11-24T05:36:53.501Z,5.30
2022-11-24T05:39:22.385Z,5.30
2022-11-24T05:41:50.672Z,5.00
2022-11-24T05:44:18.736Z,5.60
2022-11-24T05:46:46.843Z,5.20
2022-11-24T05:49:14.910Z,5.10
2022-11-24T05:51:43.299Z,4.90
2022-11-24T05:54:11.661Z,5.20
2022-11-24T05:56:39.824Z,4.80
2022-11-24T05:59:10.024Z,5.30
2022-11-24T06:01:38.818Z,5.40
2022-11-24T06:04:07.613Z,5.60
2022-11-24T06:06:36.467Z,5.30
2022-11-24T06:09:05.322Z,5.30
2022-11-24T06:11:33.596Z,4.90
2022-11-24T06:14:04.662Z,5.90
2022-11-24T06:16:35.180Z,5.20
2022-11-24T06:19:03.335Z,6.00
2022-11-24T06:21:31.931Z,5.10
2022-11-24T06:24:00.172Z,5.70
2022-11-24T06:26:28.965Z,5.60
2022-11-24T06:28:57.237Z,5.80
2022-11-24T06:31:25.379Z,5.60
2022-11-24T06:33:54.062Z,5.30
2022-11-24T06:36:22.483Z,5.40
2022-11-24T06:38:50.522Z,5.50
2022-11-24T06:41:20.461Z,6.00
2022-11-24T06:43:48.534Z,5.20
2022-11-24T06:46:16.581Z,5.50
2022-11-24T06:48:45.295Z,5.20
2022-11-24T06:51:13.962Z,5.90
2022-11-24T06:53:42.341Z,5.80
2022-11-24T06:56:16.690Z,5.50
2022-11-24T06:58:49.779Z,5.50
2022-11-24T07:01:25.197Z,5.70
2022-11-24T07:03:55.697Z,5.70
2022-11-24T07:06:28.494Z,5.40
2022-11-24T07:08:56.425Z,5.80
2022-11-24T07:11:24.879Z,5.60
2022-11-24T07:13:59.599Z,5.80
2022-11-24T07:16:29.877Z,5.70
2022-11-24T07:18:59.517Z,5.60
2022-11-24T07:21:30.815Z,5.50
2022-11-24T07:23:59.412Z,5.00
2022-11-24T07:26:27.404Z,5.70
2022-11-24T07:28:55.821Z,5.70
2022-11-24T07:31:26.598Z,6.10
2022-11-24T07:33:55.863Z,6.50
2022-11-24T07:36:24.769Z,6.60
2022-11-24T07:38:52.858Z,7.00
2022-11-24T07:41:21.821Z,7.80
2022-11-24T07:43:52.033Z,7.50
2022-11-24T07:46:21.016Z,7.20
2022-11-24T07:48:49.428Z,7.30
2022-11-24T07:51:18.986Z,7.30
2022-11-24T07:53:50.475Z,7.00
2022-11-24T07:56:19.555Z,6.80
2022-11-24T07:58:52.625Z,6.90
2022-11-24T08:01:22.249Z,7.40
2022-11-24T08:03:51.068Z,8.10
2022-11-24T08:06:28.588Z,7.00
2022-11-24T08:09:01.101Z,7.80
2022-11-24T08:11:31.732Z,7.00
2022-11-24T08:14:03.527Z,7.60
2022-11-24T08:16:32.545Z,7.70
2022-11-24T08:19:01.090Z,7.50
2022-11-24T08:21:30.952Z,7.20
2022-11-24T08:23:59.947Z,7.30
2022-11-24T08:26:29.706Z,7.70
2022-11-24T08:28:59.917Z,7.90
2022-11-24T08:31:36.231Z,7.90
2022-11-24T08:34:06.912Z,7.30
2022-11-24T08:36:35.525Z,7.50
2022-11-24T08:39:05.111Z,6.90
2022-11-24T08:41:34.315Z,7.00
2022-11-24T08:44:03.522Z,7.70
2022-11-24T08:46:32.058Z,6.90
2022-11-24T08:49:01.422Z,6.70
2022-11-24T08:51:30.088Z,6.70
2022-11-24T08:54:02.254Z,7.20
2022-11-24T08:56:36.700Z,7.80
2022-11-24T08:59:05.661Z,6.90
2022-11-24T09:01:35.294Z,6.40
2022-11-24T09:04:04.417Z,6.90
2022-11-24T09:06:33.992Z,6.90
2022-11-24T09:09:03.655Z,6.50
2022-11-24T09:11:35.220Z,6.00
2022-11-24T09:14:05.565Z,6.50
2022-11-24T09:16:34.642Z,7.10
2022-11-24T09:19:08.727Z,6.60
2022-11-24T09:21:40.409Z,6.80
2022-11-24T09:24:11.418Z,6.70
2022-11-24T09:26:46.109Z,6.30
2022-11-24T09:29:17.558Z,6.60
2022-11-24T09:31:47.226Z,6.80
2022-11-24T09:34:17.793Z,6.00
2022-11-24T09:36:46.264Z,6.10
2022-11-24T09:39:14.963Z,6.10
2022-11-24T09:42:07.911Z,6.20
2022-11-24T09:45:07.021Z,5.40
2022-11-24T09:48:13.088Z,6.50
2022-11-24T09:50:45.077Z,6.50
2022-11-24T09:53:42.117Z,6.00
2022-11-24T09:56:23.780Z,6.00
2022-11-24T09:59:12.939Z,6.50
2022-11-24T10:01:45.416Z,6.40
2022-11-24T10:04:23.835Z,6.30
2022-11-24T10:07:39.953Z,5.70
2022-11-24T10:10:55.009Z,6.10
2022-11-24T10:13:53.140Z,7.40
2022-11-24T10:17:12.657Z,6.40
2022-11-24T10:20:04.194Z,6.60
2022-11-24T10:23:02.561Z,6.40
2022-11-24T10:25:51.528Z,5.90
2022-11-24T10:28:20.935Z,6.90
2022-11-24T10:30:50.692Z,6.10
2022-11-24T10:33:30.351Z,5.70
2022-11-24T10:36:12.903Z,5.70
2022-11-24T10:38:59.609Z,5.60
2022-11-24T10:41:59.843Z,6.10
2022-11-24T10:44:29.384Z,5.30
2022-11-24T10:46:58.373Z,5.90
2022-11-24T10:49:33.956Z,5.60
2022-11-24T10:52:19.328Z,5.50
2022-11-24T10:55:03.411Z,5.30
2022-11-24T10:57:46.054Z,5.30
2022-11-24T11:00:20.126Z,5.60
2022-11-24T11:03:10.369Z,5.40
2022-11-24T11:05:45.120Z,4.90
2022-11-24T11:08:27.756Z,5.10
2022-11-24T11:11:18.973Z,5.00
2022-11-24T11:14:04.337Z,4.40
2022-11-24T11:16:37.950Z,5.00
2022-11-24T11:19:54.243Z,4.40
2022-11-24T11:22:30.124Z,5.10
2022-11-24T11:25:04.218Z,5.00
2022-11-24T11:27:32.187Z,4.90
2022-11-24T11:36:15.929Z,4.40
2022-11-24T11:38:47.121Z,4.30
2022-11-24T11:41:25.801Z,4.80
2022-11-24T11:44:32.299Z,4.40
2022-11-24T11:47:11.500Z,4.60
2022-11-24T11:49:40.572Z,4.30
2022-11-24T11:52:30.745Z,4.60
2022-11-24T11:55:08.833Z,4.50
2022-11-24T11:57:52.058Z,4.30
2022-11-24T12:00:22.431Z,4.70
2022-11-24T12:03:43.804Z,4.30
2022-11-24T12:07:06.057Z,4.20
2022-11-24T12:09:56.445Z,4.40
2022-11-24T12:12:36.661Z,4.50
2022-11-24T12:15:31.573Z,4.70
2022-11-24T12:18:40.333Z,4.10
2022-11-24T12:21:26.835Z,4.50
2022-11-24T12:24:22.716Z,4.70
2022-11-24T12:26:59.022Z,4.40
2022-11-24T12:29:42.114Z,4.40
2022-11-24T12:32:47.697Z,4.40
2022-11-24T12:35:39.319Z,4.40
2022-11-24T12:38:22.444Z,4.40
2022-11-24T12:41:50.793Z,4.50
2022-11-24T12:44:43.634Z,4.40
2022-11-24T12:47:36.060Z,4.40
2022-11-24T12:50:19.445Z,4.10
2022-11-24T12:53:21.187Z,4.50
2022-11-24T12:55:49.807Z,4.50
2022-11-24T12:58:25.655Z,4.30
2022-11-24T13:01:21.779Z,4.40
2022-11-24T13:04:12.578Z,4.80
2022-11-24T13:06:59.663Z,4.10
2022-11-24T13:09:27.605Z,4.90
2022-11-24T13:12:13.875Z,4.50
2022-11-24T13:14:48.636Z,4.20
2022-11-24T13:20:33.433Z,4.50
2022-11-24T13:23:05.142Z,4.30
2022-11-24T13:25:35.710Z,4.50
2022-11-24T13:28:06.882Z,4.10
2022-11-24T13:30:34.891Z,4.40
2022-11-24T13:33:16.471Z,4.40
2022-11-24T13:36:08.107Z,4.60
2022-11-24T13:38:54.190Z,4.50
2022-11-24T13:41:34.556Z,4.90
2022-11-24T13:44:15.045Z,4.60
2022-11-24T13:47:27.739Z,4.70
2022-11-24T13:49:55.952Z,4.20
2022-11-24T13:52:36.705Z,4.50
2022-11-24T13:55:26.054Z,4.30
2022-11-24T13:58:34.676Z,4.60
2022-11-24T14:01:10.934Z,4.40
2022-11-24T14:04:31.080Z,4.50
2022-11-24T14:07:11.432Z,4.60
2022-11-24T14:09:47.282Z,4.50
2022-11-24T14:12:26.985Z,4.40
2022-11-24T14:15:35.615Z,4.30
2022-11-24T14:18:21.113Z,4.60
2022-11-24T14:20:49.679Z,4.50
2022-11-24T14:23:17.854Z,4.50
2022-11-24T14:25:51.768Z,4.50
2022-11-24T14:28:26.875Z,4.70
2022-11-24T14:31:23.895Z,4.60
2022-11-24T14:34:17.134Z,4.60
2022-11-24T14:36:45.589Z,4.60
2022-11-24T14:39:23.224Z,4.90
2022-11-24T14:41:57.521Z,4.70
2022-11-24T14:44:57.659Z,4.60
2022-11-24T14:47:38.122Z,4.60
2022-11-24T14:50:15.475Z,4.80
2022-11-24T14:52:56.914Z,4.50
2022-11-24T14:55:33.588Z,4.60
2022-11-24T14:58:03.648Z,4.60
2022-11-24T15:00:33.839Z,5.30
2022-11-24T15:03:03.374Z,4.90
2022-11-24T15:05:58.798Z,5.00
2022-11-24T15:08:45.715Z,5.20
2022-11-24T15:11:15.815Z,6.10
2022-11-24T15:13:55.628Z,6.30
2022-11-24T15:16:29.055Z,6.50
2022-11-24T15:19:02.597Z,6.20
2022-11-24T15:21:37.454Z,6.50
2022-11-24T15:24:20.041Z,7.10
2022-11-24T15:26:49.838Z,6.50
2022-11-24T15:29:18.125Z,6.30
2022-11-24T15:31:52.420Z,6.60
2022-11-24T15:34:22.354Z,6.70
2022-11-24T15:36:51.926Z,7.30
2022-11-24T15:39:20.737Z,6.40
2022-11-24T15:41:49.938Z,6.40
2022-11-24T15:44:22.210Z,6.50
2022-11-24T15:46:51.902Z,6.80
2022-11-24T15:49:22.930Z,6.80
2022-11-24T15:51:53.219Z,6.20
2022-11-24T15:54:24.820Z,6.40
2022-11-24T15:56:53.418Z,6.90
2022-11-24T15:59:24.641Z,6.40
2022-11-24T16:01:54.141Z,6.30
2022-11-24T16:04:22.965Z,6.50
2022-11-24T16:06:51.466Z,6.50
2022-11-24T16:09:19.721Z,6.20
2022-11-24T16:11:48.712Z,6.20
2022-11-24T16:14:18.644Z,6.20
2022-11-24T16:16:48.309Z,6.50
2022-11-24T16:19:18.085Z,6.50
2022-11-24T16:21:50.593Z,7.10
2022-11-24T16:24:19.217Z,6.60
2022-11-24T16:26:48.065Z,6.50
2022-11-24T16:29:17.287Z,7.40
2022-11-24T16:31:47.512Z,7.30
2022-11-24T16:34:16.434Z,7.10
2022-11-24T16:36:45.890Z,7.00
2022-11-24T16:39:14.492Z,7.20
2022-11-24T16:41:42.989Z,7.80
2022-11-24T16:44:11.670Z,7.90
2022-11-24T16:46:40.155Z,7.50
2022-11-24T16:49:10.066Z,8.10
2022-11-24T16:51:38.653Z,7.50
2022-11-24T16:54:07.231Z,7.80
2022-11-24T16:56:35.453Z,7.70
2022-11-24T16:59:05.636Z,7.60
2022-11-24T17:01:36.417Z,7.50
2022-11-24T17:04:12.582Z,7.20
2022-11-24T17:06:43.290Z,7.70
2022-11-24T17:09:12.128Z,8.20
2022-11-24T17:11:41.697Z,6.90
2022-11-24T17:14:11.922Z,7.00
2022-11-24T17:16:40.812Z,8.20
2022-11-24T17:19:09.855Z,7.50
2022-11-24T17:21:40.002Z,7.70
2022-11-24T17:24:16.266Z,7.50
2022-11-24T17:26:48.939Z,7.60
2022-11-24T17:29:19.618Z,7.00
2022-11-24T17:31:48.535Z,7.50
2022-11-24T17:34:17.138Z,7.30
2022-11-24T17:36:46.973Z,7.30
2022-11-24T17:39:20.306Z,7.20
2022-11-24T17:41:52.426Z,7.50
2022-11-24T17:44:22.469Z,7.90
2022-11-24T17:46:51.424Z,7.50
2022-11-24T17:49:22.768Z,7.30
2022-11-24T17:51:51.270Z,7.30
2022-11-24T17:57:10.233Z,7.50
2022-11-24T17:59:38.819Z,7.70
2022-11-24T18:02:12.180Z,7.00
2022-11-24T18:04:41.311Z,7.60
2022-11-24T18:07:10.161Z,7.70
2022-11-24T18:09:39.118Z,7.30
2022-11-24T18:12:09.053Z,7.60
2022-11-24T18:14:37.788Z,7.30
2022-11-24T18:17:08.040Z,7.40
2022-11-24T18:19:36.713Z,7.70
2022-11-24T18:22:05.150Z,6.90
2022-11-24T18:24:34.338Z,7.10
2022-11-24T18:27:03.206Z,8.30
2022-11-24T18:29:32.280Z,8.00
2022-11-24T18:32:03.380Z,7.40
2022-11-24T18:34:33.871Z,7.50
2022-11-24T18:37:04.633Z,7.60
2022-11-24T18:39:34.298Z,7.90
2022-11-24T18:42:03.073Z,8.10
2022-11-24T18:44:31.459Z,7.50
2022-11-24T18:47:04.745Z,7.80
2022-11-24T18:49:33.434Z,8.00
2022-11-24T18:52:02.130Z,8.30
2022-11-24T18:54:31.666Z,8.70
2022-11-24T18:57:03.265Z,10.20
2022-11-24T18:59:33.814Z,8.90
2022-11-24T19:02:02.965Z,8.90
2022-11-24T19:04:31.487Z,9.60
2022-11-24T19:07:00.742Z,9.70
2022-11-24T19:09:29.486Z,9.50
2022-11-24T19:11:58.178Z,9.40
2022-11-24T19:14:27.055Z,9.10
2022-11-24T19:16:56.115Z,9.90
2022-11-24T19:19:24.442Z,10.10
2022-11-24T19:21:53.625Z,9.80
2022-11-24T19:24:22.659Z,10.50
2022-11-24T19:26:51.777Z,10.10
2022-11-24T19:29:20.910Z,10.30
2022-11-24T19:31:50.168Z,10.00
2022-11-24T19:34:19.003Z,10.90
2022-11-24T19:36:47.800Z,10.80
2022-11-24T19:39:18.728Z,10.70
2022-11-24T19:41:48.396Z,10.50
2022-11-24T19:44:18.355Z,10.90
2022-11-24T19:46:46.898Z,10.80
2022-11-24T19:49:16.822Z,10.80
2022-11-24T19:51:47.411Z,11.20
2022-11-24T19:54:17.324Z,10.40
2022-11-24T19:56:53.653Z,11.40
2022-11-24T19:59:26.863Z,10.80
2022-11-24T20:01:56.803Z,10.60
2022-11-24T20:04:25.457Z,10.90
2022-11-24T20:06:53.851Z,10.60
2022-11-24T20:09:22.830Z,10.40
2022-11-24T20:11:51.349Z,11.20
2022-11-24T20:14:20.318Z,11.30
2022-11-24T20:16:49.590Z,10.00
2022-11-24T20:19:18.918Z,10.20
2022-11-24T20:21:52.030Z,10.30
2022-11-24T20:24:24.908Z,10.60
2022-11-24T20:27:01.050Z,11.00
2022-11-24T20:29:29.562Z,11.70
2022-11-24T20:31:59.303Z,10.70
2022-11-24T20:34:29.134Z,11.00
2022-11-24T20:36:57.438Z,11.90
2022-11-24T20:39:28.537Z,10.70
2022-11-24T20:41:57.664Z,11.00
2022-11-24T20:44:28.085Z,11.70
2022-11-24T20:47:00.088Z,11.90
2022-11-24T20:49:29.204Z,10.30
2022-11-24T20:51:59.307Z,11.70
2022-11-24T20:54:28.777Z,10.00
2022-11-24T20:56:58.384Z,10.60
2022-11-24T20:59:26.984Z,10.80
2022-11-24T21:01:56.326Z,11.70
2022-11-24T21:04:27.422Z,10.80
2022-11-24T21:06:56.374Z,10.70
2022-11-24T21:09:25.295Z,11.40
2022-11-24T21:11:54.858Z,10.90
2022-11-24T21:14:24.725Z,11.00
2022-11-24T21:16:53.260Z,12.20
2022-11-24T21:19:23.117Z,11.50
2022-11-24T21:21:54.804Z,10.90
2022-11-24T21:24:23.350Z,11.90
2022-11-24T21:26:53.722Z,11.70
2022-11-24T21:29:25.768Z,11.50
2022-11-24T21:31:55.118Z,11.00
2022-11-24T21:34:24.653Z,10.80
2022-11-24T21:36:54.673Z,11.50
2022-11-24T21:39:23.239Z,11.90
2022-11-24T21:41:52.588Z,11.70
2022-11-24T21:44:22.574Z,13.00
2022-11-24T21:46:55.879Z,11.80
2022-11-24T21:49:26.101Z,11.10
2022-11-24T21:51:56.396Z,12.10
2022-11-24T21:54:28.122Z,11.50
2022-11-24T21:57:00.683Z,11.60
2022-11-24T21:59:34.158Z,12.00
2022-11-24T22:02:05.804Z,12.10
2022-11-24T22:04:37.550Z,12.40
2022-11-24T22:07:08.965Z,11.70
2022-11-24T22:09:38.387Z,12.10
2022-11-24T22:12:07.306Z,12.90
2022-11-24T22:14:40.213Z,12.20
2022-11-24T22:17:09.395Z,10.80
2022-11-24T22:19:38.232Z,11.10
2022-11-24T22:22:07.880Z,11.00
2022-11-24T22:24:38.499Z,11.80
2022-11-24T22:27:08.635Z,11.60
2022-11-24T22:29:37.556Z,11.50
2022-11-24T22:32:07.329Z,11.40
2022-11-24T22:34:35.997Z,11.30
2022-11-24T22:37:05.794Z,11.60
2022-11-24T22:39:34.866Z,11.20
2022-11-24T22:42:04.790Z,12.50
2022-11-24T22:44:34.219Z,11.70
2022-11-24T22:47:03.555Z,12.00
2022-11-24T22:49:31.932Z,11.80
2022-11-24T22:52:01.035Z,11.60
2022-11-24T22:54:29.827Z,11.60
2022-11-24T22:56:58.712Z,11.60
2022-11-24T22:59:27.396Z,10.60
2022-11-24T23:01:57.424Z,11.80
2022-11-24T23:04:26.049Z,11.90
2022-11-24T23:06:55.431Z,12.20
2022-11-24T23:09:24.582Z,11.70
2022-11-24T23:11:53.607Z,11.10
2022-11-24T23:14:22.419Z,11.40
2022-11-24T23:16:52.140Z,11.00
2022-11-24T23:19:22.533Z,10.90
2022-11-24T23:21:51.218Z,11.50
2022-11-24T23:24:20.048Z,11.10
2022-11-24T23:26:52.150Z,11.50
2022-11-24T23:29:21.891Z,11.50
2022-11-24T23:31:51.893Z,10.90
2022-11-24T23:34:22.036Z,11.20
2022-11-24T23:36:50.334Z,11.00
2022-11-24T23:39:18.972Z,11.00
2022-11-24T23:41:48.177Z,10.20
2022-11-24T23:44:17.172Z,10.50
2022-11-24T23:46:45.461Z,10.10
2022-11-24T23:49:14.532Z,10.20
2022-11-24T23:51:43.800Z,9.70
2022-11-24T23:54:13.315Z,9.30
2022-11-24T23:56:42.190Z,9.70
2022-11-24T23:59:12.566Z,10.20
